Cold Bay, AK

9:12 PM AKDT on September 20, 2014 (GMT -0800)
Cold Bay | Change Station
CLOSE
Current Station
Airport
Location: Cold Bay,
Elevation: 102 ft
Nearby Weather Stations

Elev 102 ft 55.22 °N, 162.73 °W | Updated 19 minutes ago

Overcast
Overcast
46 °F
Feels Like 41 °F
N
10
Wind Variable Wind from NNW

Today
High -- | Low -- °F
--% Chance of Precip.
Yesterday
High -- | Low -- °F
Precip. -- in
8:33 AM 8:54 PM
Waning Crescent, 8% visible
Pressure 29.75 in
Visibility 10.0 miles
Clouds Few 3200 ft
Overcast 4500 ft
Windchill 41 °F
Dew Point 43 °F
Humidity 89%
Rainfall 0.07 in
Snow Depth 4 in , 0 in , 0 in
UV 0 out of 12
Pollen Not available.
Air Quality Not available.
Flu Activity Not available.
METAR PACD 210453Z AUTO 34009KT 10SM FEW032 OVC045 08/06 A2975 RMK AO2 RAE01 SLP075 P0000 T00780061 TSNO $

More Conditions Fewer Conditions

Pressure 29.75 in
Visibility 10.0 miles
Clouds Few 3200 ft
Overcast 4500 ft
Windchill 41 °F
Dew Point 43 °F
Humidity 89%
Rainfall 0.07 in
Snow Depth 4 in , 0 in , 0 in
UV 0 out of 12
Pollen Not available.
Air Quality Not available.
Flu Activity Not available.
METAR PACD 210453Z AUTO 34009KT 10SM FEW032 OVC045 08/06 A2975 RMK AO2 RAE01 SLP075 P0000 T00780061 TSNO $

More Conditions Fewer Conditions

10-Day Weather Forecast

Almanac

Astronomy

Sep. 20, 2014 Rise Set
Actual Time 8:33 AM AKDT 8:54 PM AKDT
Civil Twilight 7:56 AM AKDT 9:30 PM AKDT
Nautical Twilight 7:12 AM AKDT 10:13 PM AKDT
Astronomical Twilight 6:26 AM AKDT 10:59 PM AKDT
Moon 4:57 AM AKDT (9/20) 7:24 PM AKDT (9/20)
Length of Visible Light 13h 34m
Length of Day
12h 21m
Tomorrow will be 4m 28s shorter.
Waning Crescent, 8% of the Moon is Illuminated
Sep 21
Waning Crescent
Sep 24
New
Oct 1
First Quarter
Oct 8
Full
Oct 15
Last Quarter

Yesterday's Extremes

State Highs State Lows

Community

WunderPhotos

Upload Photos

1,755,091 photos uploaded!

Nearby

Snow Depth

Station Depth Elevation
Atigun Pass 4 in 4800 ft
Little Chena Ridge 0 in 2000 ft
Grandview 0 in 1100 ft
Nuka Glacier 79 in 1250 ft
Upper Tsaina River 0 in 1750 ft

Earthquake Activity

City Distance Mag. Time & Date
No recent earthquake activity has been reported nearby.
Minimum magnitude displayed is 2.5.

Coastal Water Temperatures

Place Temperature
No Stations Reporting

Nearby Weather Stations